sensor_id;sensor_type;location;lat;lon;timestamp;temperature;humidity
23609;DHT22;11982;50.810;4.442;2023-02-28T00:00:27;0.10;99.90
23609;DHT22;11982;50.810;4.442;2023-02-28T00:02:53;0.10;99.90
23609;DHT22;11982;50.810;4.442;2023-02-28T00:05:21;0.00;99.90
23609;DHT22;11982;50.810;4.442;2023-02-28T00:07:47;-0.10;99.90
23609;DHT22;11982;50.810;4.442;2023-02-28T00:10:19;-0.10;99.90
23609;DHT22;11982;50.810;4.442;2023-02-28T00:12:47;-0.10;99.90
23609;DHT22;11982;50.810;4.442;2023-02-28T00:15:13;-0.10;99.90
23609;DHT22;11982;50.810;4.442;2023-02-28T00:17:39;-0.20;99.90
23609;DHT22;11982;50.810;4.442;2023-02-28T00:20:05;-0.20;99.90
23609;DHT22;11982;50.810;4.442;2023-02-28T00:22:36;-0.20;99.90
23609;DHT22;11982;50.810;4.442;2023-02-28T00:25:03;-0.20;99.90
23609;DHT22;11982;50.810;4.442;2023-02-28T00:27:29;-0.20;99.90
23609;DHT22;11982;50.810;4.442;2023-02-28T00:29:55;-0.20;99.90
23609;DHT22;11982;50.810;4.442;2023-02-28T00:32:21;-0.30;99.90
23609;DHT22;11982;50.810;4.442;2023-02-28T00:34:46;-0.30;99.90
23609;DHT22;11982;50.810;4.442;2023-02-28T00:37:12;-0.30;99.90
23609;DHT22;11982;50.810;4.442;2023-02-28T00:39:38;-0.30;99.90
23609;DHT22;11982;50.810;4.442;2023-02-28T00:42:05;-0.20;99.90
23609;DHT22;11982;50.810;4.442;2023-02-28T00:44:32;-0.30;99.90
23609;DHT22;11982;50.810;4.442;2023-02-28T00:46:58;-0.20;99.90
23609;DHT22;11982;50.810;4.442;2023-02-28T00:49:25;-0.30;99.90
23609;DHT22;11982;50.810;4.442;2023-02-28T00:51:52;-0.30;99.90
23609;DHT22;11982;50.810;4.442;2023-02-28T00:54:18;-0.30;99.90
23609;DHT22;11982;50.810;4.442;2023-02-28T00:56:46;-0.20;99.90
23609;DHT22;11982;50.810;4.442;2023-02-28T00:59:15;-0.20;99.90
23609;DHT22;11982;50.810;4.442;2023-02-28T01:01:41;-0.30;99.90
23609;DHT22;11982;50.810;4.442;2023-02-28T01:04:07;-0.30;99.90
23609;DHT22;11982;50.810;4.442;2023-02-28T01:06:36;-0.30;99.90
23609;DHT22;11982;50.810;4.442;2023-02-28T01:09:03;-0.30;99.90
23609;DHT22;11982;50.810;4.442;2023-02-28T01:11:29;-0.30;99.90
23609;DHT22;11982;50.810;4.442;2023-02-28T01:13:55;-0.20;99.90
23609;DHT22;11982;50.810;4.442;2023-02-28T01:16:21;-0.30;99.90
23609;DHT22;11982;50.810;4.442;2023-02-28T01:18:46;-0.20;99.90
23609;DHT22;11982;50.810;4.442;2023-02-28T01:21:15;-0.30;99.90
23609;DHT22;11982;50.810;4.442;2023-02-28T01:23:41;-0.30;99.90
23609;DHT22;11982;50.810;4.442;2023-02-28T01:26:15;-0.30;99.90
23609;DHT22;11982;50.810;4.442;2023-02-28T01:28:42;-0.30;99.90
23609;DHT22;11982;50.810;4.442;2023-02-28T01:31:08;-0.20;99.90
23609;DHT22;11982;50.810;4.442;2023-02-28T01:33:35;-0.20;99.90
23609;DHT22;11982;50.810;4.442;2023-02-28T01:36:12;-0.30;99.90
23609;DHT22;11982;50.810;4.442;2023-02-28T01:38:39;-0.30;99.90
23609;DHT22;11982;50.810;4.442;2023-02-28T01:41:06;-0.30;99.90
23609;DHT22;11982;50.810;4.442;2023-02-28T01:43:56;-0.30;99.90
23609;DHT22;11982;50.810;4.442;2023-02-28T01:46:22;-0.20;99.90
23609;DHT22;11982;50.810;4.442;2023-02-28T01:49:01;-0.30;99.90
23609;DHT22;11982;50.810;4.442;2023-02-28T01:51:42;-0.40;99.90
23609;DHT22;11982;50.810;4.442;2023-02-28T01:54:22;-0.40;99.90
23609;DHT22;11982;50.810;4.442;2023-02-28T01:56:55;-0.50;99.90
23609;DHT22;11982;50.810;4.442;2023-02-28T01:59:27;-0.50;99.90
23609;DHT22;11982;50.810;4.442;2023-02-28T02:01:55;-0.50;99.90
23609;DHT22;11982;50.810;4.442;2023-02-28T02:04:23;-0.50;99.90
23609;DHT22;11982;50.810;4.442;2023-02-28T02:06:51;-0.50;99.90
23609;DHT22;11982;50.810;4.442;2023-02-28T02:09:17;-0.50;99.90
23609;DHT22;11982;50.810;4.442;2023-02-28T02:11:44;-0.50;99.90
23609;DHT22;11982;50.810;4.442;2023-02-28T02:20:15;-0.50;99.90
23609;DHT22;11982;50.810;4.442;2023-02-28T02:26:00;-0.70;99.90
23609;DHT22;11982;50.810;4.442;2023-02-28T02:28:52;-0.70;99.90
23609;DHT22;11982;50.810;4.442;2023-02-28T02:34:24;-0.80;99.90
23609;DHT22;11982;50.810;4.442;2023-02-28T02:37:13;-0.70;99.90
23609;DHT22;11982;50.810;4.442;2023-02-28T02:42:37;-0.80;99.90
23609;DHT22;11982;50.810;4.442;2023-02-28T02:45:19;-0.90;99.90
23609;DHT22;11982;50.810;4.442;2023-02-28T02:47:48;-0.70;99.90
23609;DHT22;11982;50.810;4.442;2023-02-28T02:50:22;-0.80;99.90
23609;DHT22;11982;50.810;4.442;2023-02-28T02:52:53;-0.80;99.90
23609;DHT22;11982;50.810;4.442;2023-02-28T02:55:22;-0.90;99.90
23609;DHT22;11982;50.810;4.442;2023-02-28T02:57:54;-0.90;99.90
23609;DHT22;11982;50.810;4.442;2023-02-28T03:00:30;-0.90;99.90
23609;DHT22;11982;50.810;4.442;2023-02-28T03:02:57;-0.90;99.90
23609;DHT22;11982;50.810;4.442;2023-02-28T03:05:30;-0.90;99.90
23609;DHT22;11982;50.810;4.442;2023-02-28T03:07:58;-1.00;99.90
23609;DHT22;11982;50.810;4.442;2023-02-28T03:10:33;-0.90;99.90
23609;DHT22;11982;50.810;4.442;2023-02-28T03:16:23;-0.90;99.90
23609;DHT22;11982;50.810;4.442;2023-02-28T03:24:03;-0.90;99.90
23609;DHT22;11982;50.810;4.442;2023-02-28T03:26:31;-0.90;99.90
23609;DHT22;11982;50.810;4.442;2023-02-28T03:31:30;-1.10;99.90
23609;DHT22;11982;50.810;4.442;2023-02-28T03:34:11;-1.10;99.90
23609;DHT22;11982;50.810;4.442;2023-02-28T03:36:43;-1.10;99.90
23609;DHT22;11982;50.810;4.442;2023-02-28T03:39:16;-1.10;99.90
23609;DHT22;11982;50.810;4.442;2023-02-28T03:41:50;-1.10;99.90
23609;DHT22;11982;50.810;4.442;2023-02-28T03:44:23;-1.20;99.90
23609;DHT22;11982;50.810;4.442;2023-02-28T03:47:02;-1.20;99.90
23609;DHT22;11982;50.810;4.442;2023-02-28T03:49:46;-1.30;99.90
23609;DHT22;11982;50.810;4.442;2023-02-28T03:52:14;-1.20;99.90
23609;DHT22;11982;50.810;4.442;2023-02-28T03:54:45;-1.10;99.90
23609;DHT22;11982;50.810;4.442;2023-02-28T03:57:44;-1.10;99.90
23609;DHT22;11982;50.810;4.442;2023-02-28T04:00:44;-1.10;99.90
23609;DHT22;11982;50.810;4.442;2023-02-28T04:03:11;-0.90;99.90
23609;DHT22;11982;50.810;4.442;2023-02-28T04:05:53;-0.90;99.90
23609;DHT22;11982;50.810;4.442;2023-02-28T04:08:21;-1.10;99.90
23609;DHT22;11982;50.810;4.442;2023-02-28T04:13:46;-1.10;99.90
23609;DHT22;11982;50.810;4.442;2023-02-28T04:16:12;-1.20;99.90
23609;DHT22;11982;50.810;4.442;2023-02-28T04:18:43;-1.30;99.90
23609;DHT22;11982;50.810;4.442;2023-02-28T04:21:10;-1.30;99.90
23609;DHT22;11982;50.810;4.442;2023-02-28T04:23:37;-1.40;99.90
23609;DHT22;11982;50.810;4.442;2023-02-28T04:26:04;-1.40;99.90
23609;DHT22;11982;50.810;4.442;2023-02-28T04:28:31;-1.40;99.90
23609;DHT22;11982;50.810;4.442;2023-02-28T04:30:59;-1.40;99.90
23609;DHT22;11982;50.810;4.442;2023-02-28T04:33:27;-1.30;99.90
23609;DHT22;11982;50.810;4.442;2023-02-28T04:36:05;-1.20;99.90
23609;DHT22;11982;50.810;4.442;2023-02-28T04:38:38;-1.20;99.90
23609;DHT22;11982;50.810;4.442;2023-02-28T04:41:05;-1.20;99.90
23609;DHT22;11982;50.810;4.442;2023-02-28T04:43:31;-1.10;99.90
23609;DHT22;11982;50.810;4.442;2023-02-28T04:46:00;-1.10;99.90
23609;DHT22;11982;50.810;4.442;2023-02-28T04:48:28;-1.10;99.90
23609;DHT22;11982;50.810;4.442;2023-02-28T04:51:09;-1.20;99.90
23609;DHT22;11982;50.810;4.442;2023-02-28T04:53:37;-1.20;99.90
23609;DHT22;11982;50.810;4.442;2023-02-28T04:56:04;-1.20;99.90
23609;DHT22;11982;50.810;4.442;2023-02-28T04:58:32;-1.20;99.90
23609;DHT22;11982;50.810;4.442;2023-02-28T05:01:03;-1.20;99.90
23609;DHT22;11982;50.810;4.442;2023-02-28T05:03:33;-1.20;99.90
23609;DHT22;11982;50.810;4.442;2023-02-28T05:05:59;-1.20;99.90
23609;DHT22;11982;50.810;4.442;2023-02-28T05:08:25;-1.00;99.90
23609;DHT22;11982;50.810;4.442;2023-02-28T05:10:50;-1.10;99.90
23609;DHT22;11982;50.810;4.442;2023-02-28T05:13:16;-1.10;99.90
23609;DHT22;11982;50.810;4.442;2023-02-28T05:15:42;-1.00;99.90
23609;DHT22;11982;50.810;4.442;2023-02-28T05:18:08;-1.00;99.90
23609;DHT22;11982;50.810;4.442;2023-02-28T05:20:34;-1.00;99.90
23609;DHT22;11982;50.810;4.442;2023-02-28T05:23:00;-0.90;99.90
23609;DHT22;11982;50.810;4.442;2023-02-28T05:25:26;-1.00;99.90
23609;DHT22;11982;50.810;4.442;2023-02-28T05:27:52;-0.90;99.90
23609;DHT22;11982;50.810;4.442;2023-02-28T05:30:18;-0.80;99.90
23609;DHT22;11982;50.810;4.442;2023-02-28T05:32:43;-0.70;99.90
23609;DHT22;11982;50.810;4.442;2023-02-28T05:35:10;-0.60;99.90
23609;DHT22;11982;50.810;4.442;2023-02-28T05:37:37;-0.70;99.90
23609;DHT22;11982;50.810;4.442;2023-02-28T05:40:04;-0.70;99.90
23609;DHT22;11982;50.810;4.442;2023-02-28T05:42:36;-0.70;99.90
23609;DHT22;11982;50.810;4.442;2023-02-28T05:45:02;-0.60;99.90
23609;DHT22;11982;50.810;4.442;2023-02-28T05:47:28;-0.70;99.90
23609;DHT22;11982;50.810;4.442;2023-02-28T05:49:53;-0.70;99.90
23609;DHT22;11982;50.810;4.442;2023-02-28T05:52:19;-0.70;99.90
23609;DHT22;11982;50.810;4.442;2023-02-28T05:54:46;-0.70;99.90
23609;DHT22;11982;50.810;4.442;2023-02-28T05:57:12;-0.60;99.90
23609;DHT22;11982;50.810;4.442;2023-02-28T05:59:37;-0.60;99.90
23609;DHT22;11982;50.810;4.442;2023-02-28T06:02:06;-0.50;99.90
23609;DHT22;11982;50.810;4.442;2023-02-28T06:04:36;-0.50;99.90
23609;DHT22;11982;50.810;4.442;2023-02-28T06:07:01;-0.40;99.90
23609;DHT22;11982;50.810;4.442;2023-02-28T06:09:27;-0.40;99.90
23609;DHT22;11982;50.810;4.442;2023-02-28T06:11:53;-0.40;99.90
23609;DHT22;11982;50.810;4.442;2023-02-28T06:14:21;-0.30;99.90
23609;DHT22;11982;50.810;4.442;2023-02-28T06:16:47;-0.30;99.90
23609;DHT22;11982;50.810;4.442;2023-02-28T06:19:13;-0.20;99.90
23609;DHT22;11982;50.810;4.442;2023-02-28T06:21:39;-0.20;99.90
23609;DHT22;11982;50.810;4.442;2023-02-28T06:24:05;-0.20;99.90
23609;DHT22;11982;50.810;4.442;2023-02-28T06:26:30;-0.20;99.90
23609;DHT22;11982;50.810;4.442;2023-02-28T06:28:56;-0.10;99.90
23609;DHT22;11982;50.810;4.442;2023-02-28T06:31:22;-0.10;99.90
23609;DHT22;11982;50.810;4.442;2023-02-28T06:33:49;-0.10;99.90
23609;DHT22;11982;50.810;4.442;2023-02-28T06:36:16;0.10;99.90
23609;DHT22;11982;50.810;4.442;2023-02-28T06:38:42;0.10;99.90
23609;DHT22;11982;50.810;4.442;2023-02-28T06:41:09;0.10;99.90
23609;DHT22;11982;50.810;4.442;2023-02-28T06:43:40;0.20;99.90
23609;DHT22;11982;50.810;4.442;2023-02-28T06:46:09;0.30;99.90
23609;DHT22;11982;50.810;4.442;2023-02-28T06:48:35;0.40;99.90
23609;DHT22;11982;50.810;4.442;2023-02-28T06:51:20;0.50;99.90
23609;DHT22;11982;50.810;4.442;2023-02-28T06:53:47;0.60;99.90
23609;DHT22;11982;50.810;4.442;2023-02-28T06:56:15;0.60;99.90
23609;DHT22;11982;50.810;4.442;2023-02-28T06:58:41;0.60;99.90
23609;DHT22;11982;50.810;4.442;2023-02-28T07:04:06;0.50;99.90
23609;DHT22;11982;50.810;4.442;2023-02-28T07:06:33;0.50;99.90
23609;DHT22;11982;50.810;4.442;2023-02-28T07:08:59;0.50;99.90
23609;DHT22;11982;50.810;4.442;2023-02-28T07:11:26;0.60;99.90
23609;DHT22;11982;50.810;4.442;2023-02-28T07:13:56;0.60;99.90
23609;DHT22;11982;50.810;4.442;2023-02-28T07:16:23;0.70;99.90
23609;DHT22;11982;50.810;4.442;2023-02-28T07:18:49;0.80;99.90
23609;DHT22;11982;50.810;4.442;2023-02-28T07:21:15;0.90;99.90
23609;DHT22;11982;50.810;4.442;2023-02-28T07:23:41;0.90;99.90
23609;DHT22;11982;50.810;4.442;2023-02-28T07:26:11;1.00;99.90
23609;DHT22;11982;50.810;4.442;2023-02-28T07:28:40;0.90;99.90
23609;DHT22;11982;50.810;4.442;2023-02-28T07:31:07;1.00;99.90
23609;DHT22;11982;50.810;4.442;2023-02-28T07:33:33;0.90;99.90
23609;DHT22;11982;50.810;4.442;2023-02-28T07:36:08;1.00;99.90
23609;DHT22;11982;50.810;4.442;2023-02-28T07:38:35;0.90;99.90
23609;DHT22;11982;50.810;4.442;2023-02-28T07:41:01;0.80;99.90
23609;DHT22;11982;50.810;4.442;2023-02-28T07:43:33;0.90;99.90
23609;DHT22;11982;50.810;4.442;2023-02-28T07:46:10;0.90;99.90
23609;DHT22;11982;50.810;4.442;2023-02-28T07:48:37;1.00;99.90
23609;DHT22;11982;50.810;4.442;2023-02-28T07:51:03;1.10;99.90
23609;DHT22;11982;50.810;4.442;2023-02-28T07:53:29;0.90;99.90
23609;DHT22;11982;50.810;4.442;2023-02-28T07:55:56;0.90;99.90
23609;DHT22;11982;50.810;4.442;2023-02-28T07:58:23;0.90;99.90
23609;DHT22;11982;50.810;4.442;2023-02-28T08:00:49;0.90;99.90
23609;DHT22;11982;50.810;4.442;2023-02-28T08:05:59;0.90;99.90
23609;DHT22;11982;50.810;4.442;2023-02-28T08:08:25;0.80;99.90
23609;DHT22;11982;50.810;4.442;2023-02-28T08:10:54;0.90;99.90
23609;DHT22;11982;50.810;4.442;2023-02-28T08:13:20;0.90;99.90
23609;DHT22;11982;50.810;4.442;2023-02-28T08:15:45;0.90;99.90
23609;DHT22;11982;50.810;4.442;2023-02-28T08:18:12;1.00;99.90
23609;DHT22;11982;50.810;4.442;2023-02-28T08:20:38;1.00;99.90
23609;DHT22;11982;50.810;4.442;2023-02-28T08:23:04;1.10;99.90
23609;DHT22;11982;50.810;4.442;2023-02-28T08:25:29;1.20;99.90
23609;DHT22;11982;50.810;4.442;2023-02-28T08:27:55;1.20;99.90
23609;DHT22;11982;50.810;4.442;2023-02-28T08:30:35;1.30;99.90
23609;DHT22;11982;50.810;4.442;2023-02-28T08:33:11;1.30;99.90
23609;DHT22;11982;50.810;4.442;2023-02-28T08:35:38;1.30;99.90
23609;DHT22;11982;50.810;4.442;2023-02-28T08:38:03;1.30;99.90
23609;DHT22;11982;50.810;4.442;2023-02-28T08:40:29;1.30;99.90
23609;DHT22;11982;50.810;4.442;2023-02-28T08:42:55;1.40;99.90
23609;DHT22;11982;50.810;4.442;2023-02-28T08:45:21;1.30;99.90
23609;DHT22;11982;50.810;4.442;2023-02-28T08:47:47;1.30;99.90
23609;DHT22;11982;50.810;4.442;2023-02-28T08:50:12;1.40;99.90
23609;DHT22;11982;50.810;4.442;2023-02-28T08:52:42;1.50;99.90
23609;DHT22;11982;50.810;4.442;2023-02-28T08:55:09;1.50;99.90
23609;DHT22;11982;50.810;4.442;2023-02-28T08:57:35;1.50;99.90
23609;DHT22;11982;50.810;4.442;2023-02-28T09:00:01;1.60;99.90
23609;DHT22;11982;50.810;4.442;2023-02-28T09:02:30;1.60;99.90
23609;DHT22;11982;50.810;4.442;2023-02-28T09:04:57;1.60;99.90
23609;DHT22;11982;50.810;4.442;2023-02-28T09:07:24;1.70;99.90
23609;DHT22;11982;50.810;4.442;2023-02-28T09:09:49;1.70;99.90
23609;DHT22;11982;50.810;4.442;2023-02-28T09:12:23;1.70;99.90
23609;DHT22;11982;50.810;4.442;2023-02-28T09:14:49;1.70;99.90
23609;DHT22;11982;50.810;4.442;2023-02-28T09:17:15;1.80;99.90
23609;DHT22;11982;50.810;4.442;2023-02-28T09:19:40;1.80;99.90
23609;DHT22;11982;50.810;4.442;2023-02-28T09:22:06;1.90;99.90
23609;DHT22;11982;50.810;4.442;2023-02-28T09:24:32;1.80;99.90
23609;DHT22;11982;50.810;4.442;2023-02-28T09:26:57;1.80;99.90
23609;DHT22;11982;50.810;4.442;2023-02-28T09:29:23;1.90;99.90
23609;DHT22;11982;50.810;4.442;2023-02-28T09:31:49;1.90;99.90
23609;DHT22;11982;50.810;4.442;2023-02-28T09:34:16;2.00;99.90
23609;DHT22;11982;50.810;4.442;2023-02-28T09:36:43;2.00;99.90
23609;DHT22;11982;50.810;4.442;2023-02-28T09:39:09;2.10;99.90
23609;DHT22;11982;50.810;4.442;2023-02-28T09:41:43;2.20;99.90
23609;DHT22;11982;50.810;4.442;2023-02-28T09:47:38;2.30;99.90
23609;DHT22;11982;50.810;4.442;2023-02-28T09:52:45;2.40;99.90
23609;DHT22;11982;50.810;4.442;2023-02-28T09:57:42;2.40;99.90
23609;DHT22;11982;50.810;4.442;2023-02-28T10:00:21;2.40;99.90
23609;DHT22;11982;50.810;4.442;2023-02-28T10:03:18;2.50;99.90
23609;DHT22;11982;50.810;4.442;2023-02-28T10:08:45;2.70;99.90
23609;DHT22;11982;50.810;4.442;2023-02-28T10:11:16;2.60;99.90
23609;DHT22;11982;50.810;4.442;2023-02-28T10:14:00;2.50;99.90
23609;DHT22;11982;50.810;4.442;2023-02-28T10:16:43;2.40;99.90
23609;DHT22;11982;50.810;4.442;2023-02-28T10:21:46;2.60;99.90
23609;DHT22;11982;50.810;4.442;2023-02-28T10:26:44;2.70;99.90
23609;DHT22;11982;50.810;4.442;2023-02-28T10:29:11;2.70;99.90
23609;DHT22;11982;50.810;4.442;2023-02-28T10:31:36;2.70;99.90
23609;DHT22;11982;50.810;4.442;2023-02-28T10:34:03;2.70;99.90
23609;DHT22;11982;50.810;4.442;2023-02-28T10:36:32;2.80;99.90
23609;DHT22;11982;50.810;4.442;2023-02-28T10:38:58;2.80;99.90
23609;DHT22;11982;50.810;4.442;2023-02-28T10:41:35;2.90;99.90
23609;DHT22;11982;50.810;4.442;2023-02-28T10:47:35;3.10;99.90
23609;DHT22;11982;50.810;4.442;2023-02-28T10:50:05;2.90;99.90
23609;DHT22;11982;50.810;4.442;2023-02-28T10:52:37;3.10;99.90
23609;DHT22;11982;50.810;4.442;2023-02-28T10:55:21;3.20;99.90
23609;DHT22;11982;50.810;4.442;2023-02-28T10:57:47;3.30;99.90
23609;DHT22;11982;50.810;4.442;2023-02-28T11:00:17;3.30;99.90
23609;DHT22;11982;50.810;4.442;2023-02-28T11:02:44;3.40;99.90
23609;DHT22;11982;50.810;4.442;2023-02-28T11:05:32;3.30;99.90
23609;DHT22;11982;50.810;4.442;2023-02-28T11:08:15;3.40;99.90
23609;DHT22;11982;50.810;4.442;2023-02-28T11:10:46;3.60;99.90
23609;DHT22;11982;50.810;4.442;2023-02-28T11:13:21;3.60;99.90
23609;DHT22;11982;50.810;4.442;2023-02-28T11:16:00;3.70;99.90
23609;DHT22;11982;50.810;4.442;2023-02-28T11:21:02;3.70;99.90
23609;DHT22;11982;50.810;4.442;2023-02-28T11:23:31;3.50;99.90
23609;DHT22;11982;50.810;4.442;2023-02-28T11:26:01;3.60;99.90
23609;DHT22;11982;50.810;4.442;2023-02-28T11:36:13;3.60;99.90
23609;DHT22;11982;50.810;4.442;2023-02-28T11:38:40;3.80;99.90
23609;DHT22;11982;50.810;4.442;2023-02-28T11:46:54;4.10;99.90
23609;DHT22;11982;50.810;4.442;2023-02-28T11:52:21;4.40;99.90
23609;DHT22;11982;50.810;4.442;2023-02-28T11:55:17;4.30;99.90
23609;DHT22;11982;50.810;4.442;2023-02-28T11:58:00;4.20;99.90
23609;DHT22;11982;50.810;4.442;2023-02-28T12:01:00;4.30;99.90
23609;DHT22;11982;50.810;4.442;2023-02-28T12:03:35;4.10;99.90
23609;DHT22;11982;50.810;4.442;2023-02-28T12:11:27;4.40;99.90
23609;DHT22;11982;50.810;4.442;2023-02-28T12:16:47;4.20;99.90
23609;DHT22;11982;50.810;4.442;2023-02-28T12:27:03;4.80;99.90
23609;DHT22;11982;50.810;4.442;2023-02-28T12:29:39;4.90;99.90
23609;DHT22;11982;50.810;4.442;2023-02-28T12:32:40;5.00;99.90
23609;DHT22;11982;50.810;4.442;2023-02-28T12:37:36;4.40;99.90
23609;DHT22;11982;50.810;4.442;2023-02-28T12:40:22;4.40;99.90
23609;DHT22;11982;50.810;4.442;2023-02-28T12:43:04;4.40;99.90
23609;DHT22;11982;50.810;4.442;2023-02-28T12:45:45;4.30;99.90
23609;DHT22;11982;50.810;4.442;2023-02-28T12:48:22;4.30;99.90
23609;DHT22;11982;50.810;4.442;2023-02-28T12:50:50;4.30;99.90
23609;DHT22;11982;50.810;4.442;2023-02-28T12:54:28;4.40;99.90
23609;DHT22;11982;50.810;4.442;2023-02-28T12:59:49;4.60;99.90
23609;DHT22;11982;50.810;4.442;2023-02-28T13:10:50;4.80;99.90
23609;DHT22;11982;50.810;4.442;2023-02-28T13:13:22;4.80;99.90
23609;DHT22;11982;50.810;4.442;2023-02-28T13:16:04;4.60;99.90
23609;DHT22;11982;50.810;4.442;2023-02-28T13:21:07;4.40;99.90
23609;DHT22;11982;50.810;4.442;2023-02-28T13:34:32;4.40;99.90
23609;DHT22;11982;50.810;4.442;2023-02-28T13:39:51;4.50;99.90
23609;DHT22;11982;50.810;4.442;2023-02-28T13:50:29;4.70;99.90
23609;DHT22;11982;50.810;4.442;2023-02-28T13:59:15;4.80;99.90
23609;DHT22;11982;50.810;4.442;2023-02-28T14:02:09;4.70;99.90
23609;DHT22;11982;50.810;4.442;2023-02-28T14:07:17;4.70;99.90
23609;DHT22;11982;50.810;4.442;2023-02-28T14:09:50;4.70;99.90
23609;DHT22;11982;50.810;4.442;2023-02-28T14:15:34;4.80;99.90
23609;DHT22;11982;50.810;4.442;2023-02-28T14:21:09;4.70;99.90
23609;DHT22;11982;50.810;4.442;2023-02-28T14:37:38;4.70;99.90
23609;DHT22;11982;50.810;4.442;2023-02-28T14:40:15;4.60;99.90
23609;DHT22;11982;50.810;4.442;2023-02-28T14:42:48;4.70;99.90
23609;DHT22;11982;50.810;4.442;2023-02-28T14:45:20;4.80;99.90
23609;DHT22;11982;50.810;4.442;2023-02-28T14:47:47;4.90;99.90
23609;DHT22;11982;50.810;4.442;2023-02-28T14:50:19;4.90;99.90
23609;DHT22;11982;50.810;4.442;2023-02-28T14:52:46;4.80;99.90
23609;DHT22;11982;50.810;4.442;2023-02-28T14:55:18;4.80;99.90
23609;DHT22;11982;50.810;4.442;2023-02-28T15:00:50;4.70;99.90
23609;DHT22;11982;50.810;4.442;2023-02-28T15:03:38;4.70;99.90
23609;DHT22;11982;50.810;4.442;2023-02-28T15:06:05;4.80;99.90
23609;DHT22;11982;50.810;4.442;2023-02-28T15:09:01;4.80;99.90
23609;DHT22;11982;50.810;4.442;2023-02-28T15:14:43;4.60;99.90
23609;DHT22;11982;50.810;4.442;2023-02-28T15:17:21;4.60;99.90
23609;DHT22;11982;50.810;4.442;2023-02-28T15:19:51;4.60;99.90
23609;DHT22;11982;50.810;4.442;2023-02-28T15:22:34;4.50;99.90
23609;DHT22;11982;50.810;4.442;2023-02-28T15:28:19;4.60;99.90
23609;DHT22;11982;50.810;4.442;2023-02-28T15:30:55;4.60;99.90
23609;DHT22;11982;50.810;4.442;2023-02-28T15:33:24;4.60;99.90
23609;DHT22;11982;50.810;4.442;2023-02-28T15:35:50;4.70;99.90
23609;DHT22;11982;50.810;4.442;2023-02-28T15:38:26;4.70;99.90
23609;DHT22;11982;50.810;4.442;2023-02-28T15:40:57;4.70;99.90
23609;DHT22;11982;50.810;4.442;2023-02-28T15:43:27;4.60;99.90
23609;DHT22;11982;50.810;4.442;2023-02-28T15:48:55;4.80;99.90
23609;DHT22;11982;50.810;4.442;2023-02-28T15:51:35;4.80;99.90
23609;DHT22;11982;50.810;4.442;2023-02-28T15:54:14;4.80;99.90
23609;DHT22;11982;50.810;4.442;2023-02-28T15:56:47;4.70;99.90
23609;DHT22;11982;50.810;4.442;2023-02-28T15:59:18;4.70;99.90
23609;DHT22;11982;50.810;4.442;2023-02-28T16:01:45;4.60;99.90
23609;DHT22;11982;50.810;4.442;2023-02-28T16:04:15;4.60;99.90
23609;DHT22;11982;50.810;4.442;2023-02-28T16:07:04;4.60;99.90
23609;DHT22;11982;50.810;4.442;2023-02-28T16:09:30;4.50;99.90
23609;DHT22;11982;50.810;4.442;2023-02-28T16:12:00;4.50;99.90
23609;DHT22;11982;50.810;4.442;2023-02-28T16:14:30;4.50;99.90
23609;DHT22;11982;50.810;4.442;2023-02-28T16:17:02;4.40;99.90
23609;DHT22;11982;50.810;4.442;2023-02-28T16:19:28;4.40;99.90
23609;DHT22;11982;50.810;4.442;2023-02-28T16:21:54;4.30;99.90
23609;DHT22;11982;50.810;4.442;2023-02-28T16:24:20;4.30;99.90
23609;DHT22;11982;50.810;4.442;2023-02-28T16:26:47;4.20;99.90
23609;DHT22;11982;50.810;4.442;2023-02-28T16:29:27;4.30;99.90
23609;DHT22;11982;50.810;4.442;2023-02-28T16:31:53;4.30;99.90
23609;DHT22;11982;50.810;4.442;2023-02-28T16:34:19;4.20;99.90
23609;DHT22;11982;50.810;4.442;2023-02-28T16:36:49;4.10;99.90
23609;DHT22;11982;50.810;4.442;2023-02-28T16:39:15;4.10;99.90
23609;DHT22;11982;50.810;4.442;2023-02-28T16:41:45;4.00;99.90
23609;DHT22;11982;50.810;4.442;2023-02-28T16:44:32;4.00;99.90
23609;DHT22;11982;50.810;4.442;2023-02-28T16:47:02;3.90;99.90
23609;DHT22;11982;50.810;4.442;2023-02-28T16:49:28;3.90;99.90
23609;DHT22;11982;50.810;4.442;2023-02-28T16:54:44;3.80;99.90
23609;DHT22;11982;50.810;4.442;2023-02-28T16:59:59;3.80;99.90
23609;DHT22;11982;50.810;4.442;2023-02-28T17:02:26;3.70;99.90
23609;DHT22;11982;50.810;4.442;2023-02-28T17:05:00;3.70;99.90
23609;DHT22;11982;50.810;4.442;2023-02-28T17:07:26;3.60;99.90
23609;DHT22;11982;50.810;4.442;2023-02-28T17:09:52;3.60;99.90
23609;DHT22;11982;50.810;4.442;2023-02-28T17:12:17;3.50;99.90
23609;DHT22;11982;50.810;4.442;2023-02-28T17:14:43;3.40;99.90
23609;DHT22;11982;50.810;4.442;2023-02-28T17:17:17;3.30;99.90
23609;DHT22;11982;50.810;4.442;2023-02-28T17:19:43;3.40;99.90
23609;DHT22;11982;50.810;4.442;2023-02-28T17:22:10;3.40;99.90
23609;DHT22;11982;50.810;4.442;2023-02-28T17:27:28;3.30;99.90
23609;DHT22;11982;50.810;4.442;2023-02-28T17:29:54;3.20;99.90
23609;DHT22;11982;50.810;4.442;2023-02-28T17:32:20;3.20;99.90
23609;DHT22;11982;50.810;4.442;2023-02-28T17:34:45;3.20;99.90
23609;DHT22;11982;50.810;4.442;2023-02-28T17:37:11;3.10;99.90
23609;DHT22;11982;50.810;4.442;2023-02-28T17:39:37;3.00;99.90
23609;DHT22;11982;50.810;4.442;2023-02-28T17:42:02;2.90;99.90
23609;DHT22;11982;50.810;4.442;2023-02-28T17:44:28;2.90;99.90
23609;DHT22;11982;50.810;4.442;2023-02-28T17:46:55;2.90;99.90
23609;DHT22;11982;50.810;4.442;2023-02-28T17:49:21;2.80;99.90
23609;DHT22;11982;50.810;4.442;2023-02-28T17:51:48;2.80;99.90
23609;DHT22;11982;50.810;4.442;2023-02-28T17:54:14;2.80;99.90
23609;DHT22;11982;50.810;4.442;2023-02-28T17:56:40;2.90;99.90
23609;DHT22;11982;50.810;4.442;2023-02-28T17:59:24;2.90;99.90
23609;DHT22;11982;50.810;4.442;2023-02-28T18:02:00;2.80;99.90
23609;DHT22;11982;50.810;4.442;2023-02-28T18:04:26;2.70;99.90
23609;DHT22;11982;50.810;4.442;2023-02-28T18:06:53;2.50;99.90
23609;DHT22;11982;50.810;4.442;2023-02-28T18:09:22;2.40;99.90
23609;DHT22;11982;50.810;4.442;2023-02-28T18:11:53;2.30;99.90
23609;DHT22;11982;50.810;4.442;2023-02-28T18:14:20;2.40;99.90
23609;DHT22;11982;50.810;4.442;2023-02-28T18:16:48;2.40;99.90
23609;DHT22;11982;50.810;4.442;2023-02-28T18:19:15;2.30;99.90
23609;DHT22;11982;50.810;4.442;2023-02-28T18:21:46;2.30;99.90
23609;DHT22;11982;50.810;4.442;2023-02-28T18:24:13;2.30;99.90
23609;DHT22;11982;50.810;4.442;2023-02-28T18:26:39;2.30;99.90
23609;DHT22;11982;50.810;4.442;2023-02-28T18:29:05;2.20;99.90
23609;DHT22;11982;50.810;4.442;2023-02-28T18:31:32;2.20;99.90
23609;DHT22;11982;50.810;4.442;2023-02-28T18:33:58;2.20;99.90
23609;DHT22;11982;50.810;4.442;2023-02-28T18:36:26;2.10;99.90
23609;DHT22;11982;50.810;4.442;2023-02-28T18:38:52;2.10;99.90
23609;DHT22;11982;50.810;4.442;2023-02-28T18:41:21;2.10;99.90
23609;DHT22;11982;50.810;4.442;2023-02-28T18:43:48;2.00;99.90
23609;DHT22;11982;50.810;4.442;2023-02-28T18:46:17;2.20;99.90
23609;DHT22;11982;50.810;4.442;2023-02-28T18:48:43;2.30;99.90
23609;DHT22;11982;50.810;4.442;2023-02-28T18:51:14;2.30;99.90
23609;DHT22;11982;50.810;4.442;2023-02-28T18:53:41;2.20;99.90
23609;DHT22;11982;50.810;4.442;2023-02-28T18:56:09;2.20;99.90